Time;durP1;ratioP1;P1;durP2;ratioP2;P2;SDS_P1;SDS_P2;PMS_P1;PMS_P2;Temp;Humidity;BMP_temperature;BMP_pressure;BME280_temperature;BME280_humidity;BME280_pressure;Samples;Min_cycle;Max_cycle;Signal;HPM_P1;HPM_P2
2021/12/08 00:01:29;;;;;;;8.17;3.77;;;4.90;95.60;;;;;;5095370;28;20812;-58
2021/12/08 00:03:56;;;;;;;4.73;3.00;;;4.90;95.60;;;;;;5096102;28;20531;-58
2021/12/08 00:06:23;;;;;;;3.00;2.80;;;5.00;95.60;;;;;;5094935;28;20518;-58
2021/12/08 00:09:06;;;;;;;9.53;3.63;;;4.90;94.90;;;;;;5095177;28;20447;-58
2021/12/08 00:14:18;;;;;;;9.23;3.80;;;5.00;94.60;;;;;;5095169;28;20426;-58
2021/12/08 00:16:45;;;;;;;3.80;3.50;;;5.00;95.50;;;;;;5095006;28;20484;-58
2021/12/08 00:19:13;;;;;;;3.03;2.73;;;5.10;95.30;;;;;;5094647;28;20823;-58
2021/12/08 00:21:40;;;;;;;5.00;2.67;;;5.10;95.40;;;;;;5094708;28;20454;-58
2021/12/08 00:24:09;;;;;;;8.10;3.90;;;5.00;95.90;;;;;;5094921;28;20629;-58
2021/12/08 00:26:37;;;;;;;7.30;3.63;;;5.00;96.10;;;;;;5095305;28;20925;-58
2021/12/08 00:29:05;;;;;;;4.23;3.00;;;5.10;97.20;;;;;;5093439;28;20454;-58
2021/12/08 00:31:33;;;;;;;3.70;3.40;;;5.00;96.70;;;;;;5094380;28;20807;-58
2021/12/08 00:34:01;;;;;;;3.90;3.10;;;5.10;96.50;;;;;;5094730;28;20448;-58
2021/12/08 00:36:38;;;;;;;3.60;2.53;;;5.10;96.40;;;;;;5094593;28;20838;-57
2021/12/08 00:39:06;;;;;;;3.70;2.87;;;5.00;95.30;;;;;;5094677;28;20489;-58
2021/12/08 00:41:34;;;;;;;3.77;2.47;;;5.00;96.60;;;;;;5094335;28;20528;-58
2021/12/08 00:44:01;;;;;;;2.90;2.53;;;5.00;95.90;;;;;;5094535;28;20470;-58
2021/12/08 00:46:29;;;;;;;2.87;2.67;;;5.00;96.00;;;;;;5094452;28;20451;-58
2021/12/08 00:48:56;;;;;;;2.80;2.60;;;4.90;96.50;;;;;;5094153;28;20811;-58
2021/12/08 00:51:24;;;;;;;2.90;2.20;;;4.90;96.50;;;;;;5094395;28;20497;-58
2021/12/08 00:53:51;;;;;;;3.03;2.73;;;4.90;97.40;;;;;;5094404;28;20447;-58
2021/12/08 00:56:19;;;;;;;3.33;2.40;;;4.90;98.00;;;;;;5094363;28;20908;-58
2021/12/08 00:58:47;;;;;;;2.60;2.40;;;4.80;97.70;;;;;;5094335;28;20444;-58
2021/12/08 01:01:15;;;;;;;2.90;2.57;;;4.90;98.50;;;;;;5094189;28;20478;-58
2021/12/08 01:03:45;;;;;;;3.70;3.00;;;4.80;98.50;;;;;;5093895;28;20541;-58
2021/12/08 01:06:13;;;;;;;4.53;3.30;;;4.90;98.70;;;;;;5094142;28;20479;-58
2021/12/08 01:08:41;;;;;;;5.10;2.57;;;4.70;99.10;;;;;;5093756;28;20447;-58
2021/12/08 01:11:13;;;;;;;5.03;2.90;;;4.80;99.50;;;;;;5093703;28;20475;-58
2021/12/08 01:13:40;;;;;;;4.47;2.57;;;4.70;99.90;;;;;;5093851;28;20917;-59
2021/12/08 01:16:09;;;;;;;2.80;2.60;;;4.60;99.90;;;;;;5093622;28;21017;-58
2021/12/08 01:18:36;;;;;;;2.80;2.60;;;4.60;99.90;;;;;;5093983;28;20562;-58
2021/12/08 01:21:07;;;;;;;3.07;2.57;;;4.50;99.90;;;;;;5093789;28;20818;-58
2021/12/08 01:23:34;;;;;;;2.93;2.70;;;4.40;99.90;;;;;;5093880;28;20446;-58
2021/12/08 01:26:02;;;;;;;2.57;2.37;;;4.40;99.90;;;;;;5093428;28;20448;-58
2021/12/08 01:28:29;;;;;;;2.40;2.20;;;4.40;99.90;;;;;;5093689;28;20469;-58
2021/12/08 01:30:59;;;;;;;4.70;2.50;;;4.30;99.90;;;;;;5093699;28;20470;-58
2021/12/08 01:33:30;;;;;;;3.40;2.67;;;4.20;99.90;;;;;;5093711;28;20452;-58
2021/12/08 01:35:58;;;;;;;3.10;2.63;;;4.30;99.90;;;;;;5093313;28;21041;-58
2021/12/08 01:38:26;;;;;;;3.60;3.03;;;4.20;99.90;;;;;;5093570;28;20451;-58
2021/12/08 01:40:53;;;;;;;2.50;2.30;;;4.10;99.90;;;;;;5092868;28;20946;-58
2021/12/08 01:43:27;;;;;;;3.20;3.00;;;4.10;99.90;;;;;;5093607;28;20404;-58
2021/12/08 01:46:00;;;;;;;3.60;2.60;;;4.10;99.90;;;;;;5093642;28;20428;-58
2021/12/08 01:48:31;;;;;;;2.60;2.40;;;4.00;99.90;;;;;;5093347;28;20567;-58
2021/12/08 01:51:05;;;;;;;2.73;2.53;;;4.10;99.90;;;;;;5093459;28;20474;-58
2021/12/08 01:53:32;;;;;;;3.53;2.03;;;4.20;99.90;;;;;;5093421;28;20542;-58
2021/12/08 01:56:00;;;;;;;2.90;2.60;;;4.20;99.90;;;;;;5093296;28;20491;-58
2021/12/08 01:58:28;;;;;;;3.33;2.47;;;4.30;99.90;;;;;;5093116;28;20450;-58
2021/12/08 02:00:59;;;;;;;5.27;2.60;;;4.30;99.90;;;;;;5093012;28;20972;-58
2021/12/08 02:03:27;;;;;;;2.37;2.27;;;4.30;99.90;;;;;;5093057;28;20948;-58
2021/12/08 02:05:57;;;;;;;3.17;2.50;;;4.20;99.90;;;;;;5093061;28;20443;-58
2021/12/08 02:08:26;;;;;;;3.97;2.40;;;4.20;99.90;;;;;;5093346;28;20454;-57
2021/12/08 02:10:53;;;;;;;2.10;2.00;;;4.10;99.90;;;;;;5092932;28;20475;-58
2021/12/08 02:13:21;;;;;;;3.50;3.20;;;4.30;99.90;;;;;;5093671;28;20446;-57
2021/12/08 02:15:49;;;;;;;2.57;2.37;;;4.20;99.90;;;;;;5093228;28;20485;-57
2021/12/08 02:18:17;;;;;;;5.33;2.33;;;4.20;99.90;;;;;;5092864;28;20447;-58
2021/12/08 02:20:47;;;;;;;3.70;2.37;;;4.20;99.90;;;;;;5093090;28;20556;-58
2021/12/08 02:23:16;;;;;;;3.60;2.80;;;4.20;99.90;;;;;;5092835;28;20803;-58
2021/12/08 02:25:44;;;;;;;2.53;2.20;;;4.20;99.90;;;;;;5093157;28;20765;-58
2021/12/08 02:28:12;;;;;;;2.17;1.97;;;4.10;99.90;;;;;;5092842;28;20451;-58
2021/12/08 02:30:45;;;;;;;2.47;2.27;;;4.10;99.90;;;;;;5093012;28;20468;-58
2021/12/08 02:47:09;;;;;;;2.87;2.67;;;4.40;99.90;;;;;;5093002;28;20420;-58
2021/12/08 02:49:36;;;;;;;2.80;2.60;;;4.40;99.90;;;;;;5092476;28;20566;-58
2021/12/08 02:52:06;;;;;;;3.50;2.50;;;4.40;99.90;;;;;;5094231;28;20452;-58
2021/12/08 02:54:42;;;;;;;3.27;2.77;;;4.40;99.90;;;;;;5096324;28;20504;-58
2021/12/08 02:57:09;;;;;;;2.97;2.13;;;4.40;99.90;;;;;;5096625;28;20830;-58
2021/12/08 02:59:38;;;;;;;2.70;2.50;;;4.30;99.90;;;;;;5096477;28;20554;-58
2021/12/08 03:02:06;;;;;;;2.50;2.40;;;4.40;99.90;;;;;;5096226;28;20443;-58
2021/12/08 03:04:33;;;;;;;3.27;2.70;;;4.60;99.90;;;;;;5096433;28;20448;-57
2021/12/08 03:07:00;;;;;;;3.10;2.37;;;4.50;99.90;;;;;;5096069;28;20965;-58
2021/12/08 03:09:28;;;;;;;2.83;2.60;;;4.40;99.90;;;;;;5096012;28;20424;-58
2021/12/08 03:11:59;;;;;;;2.87;2.67;;;4.30;99.90;;;;;;5096235;28;20457;-58
2021/12/08 03:14:28;;;;;;;2.87;2.23;;;4.20;99.90;;;;;;5096074;28;20815;-58
2021/12/08 03:16:57;;;;;;;3.03;2.83;;;4.30;99.90;;;;;;5095901;28;20479;-58
2021/12/08 03:19:26;;;;;;;2.77;2.57;;;4.50;99.90;;;;;;5096156;28;20544;-58
2021/12/08 03:21:55;;;;;;;3.70;2.70;;;4.60;99.90;;;;;;5096253;28;20449;-57
2021/12/08 03:24:26;;;;;;;3.33;2.40;;;4.20;99.90;;;;;;5096148;28;20809;-58
2021/12/08 03:27:06;;;;;;;2.50;2.30;;;4.20;99.90;;;;;;5096039;28;20512;-58
2021/12/08 03:29:44;;;;;;;4.60;2.93;;;4.30;99.90;;;;;;5095916;28;20868;-58
2021/12/08 03:32:15;;;;;;;3.00;2.80;;;4.40;99.90;;;;;;5095966;28;20432;-58
2021/12/08 03:34:51;;;;;;;3.43;2.60;;;4.50;99.90;;;;;;5095919;28;20424;-58
2021/12/08 03:37:20;;;;;;;4.60;3.23;;;4.60;99.90;;;;;;5095900;28;20502;-58
2021/12/08 03:39:49;;;;;;;4.33;2.77;;;4.70;99.90;;;;;;5095731;28;20467;-57
2021/12/08 03:42:20;;;;;;;3.10;2.90;;;4.60;99.90;;;;;;5095848;28;20554;-58
2021/12/08 03:44:47;;;;;;;3.00;2.80;;;4.50;99.90;;;;;;5095798;28;20435;-58
2021/12/08 03:47:18;;;;;;;3.50;2.87;;;4.50;99.90;;;;;;5095890;28;20983;-57
2021/12/08 03:49:48;;;;;;;2.83;2.63;;;4.50;99.90;;;;;;5095115;28;20487;-58
2021/12/08 03:52:15;;;;;;;3.70;3.03;;;4.50;99.90;;;;;;5095833;28;20450;-58
2021/12/08 03:54:43;;;;;;;2.77;2.57;;;4.50;99.90;;;;;;5095256;28;20443;-58
2021/12/08 03:57:10;;;;;;;2.77;2.57;;;4.50;99.90;;;;;;5095440;28;20483;-58
2021/12/08 03:59:39;;;;;;;4.43;3.40;;;4.60;99.90;;;;;;5095076;28;20969;-58
2021/12/08 04:02:06;;;;;;;3.10;2.87;;;4.70;99.90;;;;;;5095416;28;20534;-58
2021/12/08 04:04:42;;;;;;;4.40;3.10;;;4.70;99.90;;;;;;5095161;28;20447;-58
2021/12/08 04:07:11;;;;;;;3.03;2.83;;;4.60;99.90;;;;;;5095316;28;20473;-58
2021/12/08 04:09:40;;;;;;;4.17;2.90;;;4.60;99.90;;;;;;5094928;28;20833;-58
2021/12/08 04:12:09;;;;;;;4.17;3.00;;;4.50;99.90;;;;;;5095003;28;20571;-58
2021/12/08 04:14:39;;;;;;;3.07;2.80;;;4.50;99.90;;;;;;5095242;28;20446;-58
2021/12/08 04:17:12;;;;;;;3.17;2.97;;;4.50;99.90;;;;;;5094663;28;20570;-58
2021/12/08 04:19:40;;;;;;;3.93;2.93;;;4.70;99.90;;;;;;5094724;28;20459;-58
2021/12/08 04:22:11;;;;;;;5.57;3.50;;;4.70;99.90;;;;;;5094962;28;20450;-58
2021/12/08 04:24:40;;;;;;;3.67;3.37;;;4.70;99.90;;;;;;5095018;28;20446;-58
2021/12/08 04:27:10;;;;;;;4.13;3.73;;;4.90;99.90;;;;;;5095007;28;20442;-58
2021/12/08 04:29:41;;;;;;;4.40;3.40;;;4.70;99.90;;;;;;5094859;28;20467;-58
2021/12/08 04:32:13;;;;;;;5.93;3.20;;;4.80;99.90;;;;;;5094932;28;20427;-58
2021/12/08 04:34:41;;;;;;;3.77;3.30;;;4.80;99.90;;;;;;5094872;28;20432;-58
2021/12/08 04:37:18;;;;;;;5.13;3.30;;;4.80;99.90;;;;;;5094462;28;20483;-58
2021/12/08 04:39:56;;;;;;;3.73;3.27;;;4.70;99.90;;;;;;5094324;28;20471;-58
2021/12/08 04:42:37;;;;;;;3.73;3.40;;;4.80;99.90;;;;;;5094707;28;20459;-58
2021/12/08 04:45:12;;;;;;;7.83;4.00;;;4.70;99.90;;;;;;5094580;28;20423;-58
2021/12/08 04:47:53;;;;;;;4.40;3.60;;;4.80;99.90;;;;;;5094183;28;20530;-57
2021/12/08 04:50:45;;;;;;;4.90;4.50;;;4.90;99.90;;;;;;5093980;28;20576;-57
2021/12/08 04:53:30;;;;;;;4.33;4.03;;;4.90;99.90;;;;;;5094399;28;20472;-58
2021/12/08 05:02:00;;;;;;;5.53;3.87;;;4.90;99.90;;;;;;5069373;28;20431;-58
2021/12/08 05:04:40;;;;;;;5.23;4.03;;;5.00;99.90;;;;;;5094232;28;20481;-58
2021/12/08 05:07:17;;;;;;;4.50;3.70;;;5.00;99.90;;;;;;5093841;28;20466;-58
2021/12/08 05:09:47;;;;;;;4.30;3.90;;;5.00;99.90;;;;;;5093650;28;20470;-57
2021/12/08 05:12:18;;;;;;;3.90;3.60;;;5.00;99.90;;;;;;5094045;28;20550;-57
2021/12/08 05:14:51;;;;;;;4.80;4.50;;;5.00;99.90;;;;;;5093390;28;20426;-58
2021/12/08 05:17:22;;;;;;;6.10;4.00;;;5.20;99.90;;;;;;5094065;28;20526;-58
2021/12/08 05:19:54;;;;;;;8.20;4.30;;;5.20;99.90;;;;;;5093466;28;20931;-58
2021/12/08 05:22:26;;;;;;;6.10;5.67;;;5.20;99.90;;;;;;5093972;28;20432;-58
2021/12/08 05:24:58;;;;;;;4.90;3.93;;;5.10;99.90;;;;;;5093692;28;20937;-58
2021/12/08 05:27:29;;;;;;;3.90;3.50;;;5.10;99.90;;;;;;5093476;28;20430;-57
2021/12/08 05:30:02;;;;;;;6.83;4.23;;;5.10;99.90;;;;;;5093349;28;20962;-58
2021/12/08 05:32:31;;;;;;;4.47;3.90;;;5.00;99.90;;;;;;5093383;28;20526;-58
2021/12/08 05:34:59;;;;;;;4.60;3.57;;;5.00;99.90;;;;;;5093684;28;20444;-58
2021/12/08 05:37:29;;;;;;;4.50;4.10;;;5.00;99.90;;;;;;5093293;28;20479;-58
2021/12/08 05:39:56;;;;;;;3.80;3.60;;;5.00;99.90;;;;;;5093260;28;20495;-58
2021/12/08 05:42:27;;;;;;;4.83;4.00;;;4.90;99.90;;;;;;5093194;28;20455;-58
2021/12/08 05:44:54;;;;;;;6.57;4.20;;;5.10;99.90;;;;;;5093330;28;20502;-58
2021/12/08 05:47:27;;;;;;;5.43;4.70;;;5.10;99.90;;;;;;5093593;28;20444;-57
2021/12/08 05:49:57;;;;;;;4.73;4.33;;;5.10;99.90;;;;;;5092929;28;20486;-57
2021/12/08 05:52:24;;;;;;;5.97;4.30;;;5.20;99.90;;;;;;5093486;28;20447;-57
2021/12/08 05:54:53;;;;;;;7.47;4.60;;;5.30;99.90;;;;;;5093509;28;20852;-57
2021/12/08 05:57:24;;;;;;;4.67;4.27;;;5.20;99.90;;;;;;5093418;28;20483;-57
2021/12/08 05:59:53;;;;;;;5.87;5.20;;;5.20;99.90;;;;;;5093220;28;21028;-58
2021/12/08 06:02:25;;;;;;;4.90;4.50;;;5.30;99.90;;;;;;5094083;28;20444;-57
2021/12/08 06:04:52;;;;;;;5.60;5.10;;;5.20;99.90;;;;;;5093124;28;20438;-58
2021/12/08 06:07:22;;;;;;;5.27;4.77;;;5.30;99.90;;;;;;5093315;28;20454;-58
2021/12/08 06:09:49;;;;;;;5.60;4.97;;;5.40;99.90;;;;;;5093255;28;20467;-57
2021/12/08 06:12:17;;;;;;;8.93;5.30;;;5.30;99.90;;;;;;5093254;28;20458;-57
2021/12/08 06:14:45;;;;;;;6.80;5.13;;;5.30;99.90;;;;;;5092926;28;20451;-57
2021/12/08 06:17:18;;;;;;;5.33;4.83;;;5.40;99.90;;;;;;5092983;28;20483;-57
2021/12/08 06:19:48;;;;;;;5.17;4.67;;;5.40;99.90;;;;;;5093182;28;20474;-57
2021/12/08 06:22:18;;;;;;;4.40;4.00;;;5.50;99.90;;;;;;5093097;28;20424;-57
2021/12/08 06:24:47;;;;;;;4.23;3.83;;;5.50;99.90;;;;;;5093157;28;20443;-57
2021/12/08 06:27:14;;;;;;;5.03;4.20;;;5.40;99.90;;;;;;5096044;28;20446;-57
2021/12/08 06:29:44;;;;;;;6.07;5.50;;;5.50;99.90;;;;;;5096391;28;20471;-57
2021/12/08 06:32:12;;;;;;;5.23;4.73;;;5.50;99.90;;;;;;5096382;28;20490;-57
2021/12/08 06:34:42;;;;;;;6.00;4.60;;;5.50;99.90;;;;;;5096376;28;21011;-58
2021/12/08 06:37:12;;;;;;;6.13;5.63;;;5.50;99.90;;;;;;5096724;28;20485;-57
2021/12/08 06:39:48;;;;;;;4.87;4.43;;;5.60;99.90;;;;;;5096664;28;20459;-57
2021/12/08 06:42:22;;;;;;;5.47;4.93;;;5.70;99.90;;;;;;5096296;28;20446;-57
2021/12/08 06:44:52;;;;;;;5.77;5.27;;;5.50;99.90;;;;;;5096555;28;20453;-57
2021/12/08 06:47:28;;;;;;;7.70;6.10;;;5.60;99.90;;;;;;5096437;28;20803;-57
2021/12/08 06:50:00;;;;;;;4.90;4.50;;;5.70;99.90;;;;;;5096296;28;20501;-58
2021/12/08 06:52:29;;;;;;;4.57;4.10;;;5.80;99.90;;;;;;5096148;28;20944;-57
2021/12/08 06:55:00;;;;;;;8.47;5.10;;;5.80;99.90;;;;;;5095872;28;20462;-58
2021/12/08 06:57:41;;;;;;;4.67;4.00;;;5.80;99.90;;;;;;5096306;28;20473;-57
2021/12/08 07:00:22;;;;;;;5.40;5.00;;;5.80;99.90;;;;;;5096459;28;20470;-58
2021/12/08 07:03:08;;;;;;;5.87;4.60;;;5.70;99.90;;;;;;5096213;28;20431;-57
2021/12/08 07:08:17;;;;;;;4.80;3.93;;;5.80;99.90;;;;;;5096496;28;20415;-57
2021/12/08 07:10:47;;;;;;;6.23;4.60;;;5.80;99.90;;;;;;5095796;28;20988;-57
2021/12/08 07:13:20;;;;;;;5.07;4.57;;;5.80;99.90;;;;;;5096288;28;20435;-57
2021/12/08 07:15:50;;;;;;;6.47;4.30;;;5.90;99.90;;;;;;5096056;28;20438;-57
2021/12/08 07:18:21;;;;;;;4.67;4.10;;;5.80;99.90;;;;;;5095883;28;20463;-57
2021/12/08 07:20:53;;;;;;;5.07;4.60;;;5.80;99.90;;;;;;5095699;28;20463;-57
2021/12/08 07:23:24;;;;;;;5.07;4.67;;;5.80;99.90;;;;;;5096114;28;20428;-59
2021/12/08 07:25:52;;;;;;;5.73;4.23;;;5.60;99.90;;;;;;5096279;28;20446;-57
2021/12/08 07:28:24;;;;;;;9.33;5.27;;;5.50;99.90;;;;;;5095833;28;20454;-57
2021/12/08 07:31:03;;;;;;;6.13;5.20;;;5.40;99.90;;;;;;5095566;28;20470;-57
2021/12/08 07:33:30;;;;;;;5.80;5.30;;;5.60;99.90;;;;;;5095948;28;20753;-57
2021/12/08 07:36:01;;;;;;;6.80;5.00;;;5.40;99.90;;;;;;5095581;28;20959;-57
2021/12/08 07:38:31;;;;;;;4.93;4.43;;;5.50;99.90;;;;;;5095233;28;20463;-57
2021/12/08 07:41:08;;;;;;;6.30;4.73;;;5.60;99.90;;;;;;5095327;28;20539;-58
2021/12/08 07:43:39;;;;;;;5.80;5.30;;;5.60;99.90;;;;;;5095824;28;20423;-60
2021/12/08 07:46:09;;;;;;;6.23;5.47;;;5.60;99.90;;;;;;5095524;28;20519;-58
2021/12/08 07:48:39;;;;;;;5.00;4.57;;;5.50;99.90;;;;;;5094179;28;20479;-58
2021/12/08 07:51:10;;;;;;;7.97;6.20;;;5.50;99.90;;;;;;5095523;28;20463;-59
2021/12/08 07:53:37;;;;;;;5.27;4.80;;;5.50;99.90;;;;;;5095321;28;20451;-58
2021/12/08 07:56:09;;;;;;;6.17;4.70;;;5.60;99.90;;;;;;5095336;28;20534;-57
2021/12/08 07:58:41;;;;;;;4.97;4.53;;;5.70;99.90;;;;;;5095465;28;20499;-58
2021/12/08 08:01:11;;;;;;;5.57;4.90;;;5.60;99.90;;;;;;5095465;28;20486;-57
2021/12/08 08:03:40;;;;;;;5.87;5.37;;;5.60;99.90;;;;;;5095023;28;20526;-58
2021/12/08 08:06:11;;;;;;;7.13;4.90;;;5.60;99.90;;;;;;5095055;28;20456;-58
2021/12/08 08:08:38;;;;;;;6.87;5.10;;;5.60;99.90;;;;;;5094763;28;20511;-58
2021/12/08 08:11:09;;;;;;;5.63;4.93;;;5.80;99.90;;;;;;5094715;28;20587;-57
2021/12/08 08:13:38;;;;;;;5.10;4.30;;;5.80;99.90;;;;;;5095254;28;20447;-57
2021/12/08 08:16:08;;;;;;;5.20;4.70;;;5.70;99.90;;;;;;5094767;28;21037;-59
2021/12/08 08:18:40;;;;;;;4.77;4.37;;;5.70;99.90;;;;;;5094974;28;20832;-58
2021/12/08 08:21:12;;;;;;;4.23;3.87;;;5.70;99.90;;;;;;5095084;28;20932;-59
2021/12/08 08:23:39;;;;;;;5.83;5.33;;;5.70;99.90;;;;;;5095007;28;20424;-60
2021/12/08 08:26:09;;;;;;;6.90;4.40;;;5.70;99.90;;;;;;5094648;28;20447;-60
2021/12/08 08:28:40;;;;;;;4.93;4.10;;;5.80;99.90;;;;;;5094567;28;20456;-59
2021/12/08 08:31:12;;;;;;;4.97;4.57;;;5.90;99.90;;;;;;5094353;28;20855;-58
2021/12/08 08:33:40;;;;;;;6.43;4.30;;;5.90;99.90;;;;;;5094236;28;20424;-58
2021/12/08 08:36:10;;;;;;;7.30;4.67;;;5.90;99.90;;;;;;5094907;28;20530;-58
2021/12/08 08:38:42;;;;;;;5.77;4.70;;;6.00;99.90;;;;;;5094271;28;20475;-57
2021/12/08 08:41:13;;;;;;;4.60;4.20;;;6.10;99.90;;;;;;5094331;28;20524;-58
2021/12/08 08:43:42;;;;;;;7.60;4.43;;;6.10;99.90;;;;;;5094058;28;20442;-57
2021/12/08 08:46:13;;;;;;;4.60;4.23;;;6.10;99.90;;;;;;5094957;28;20447;-58
2021/12/08 08:48:46;;;;;;;5.70;4.50;;;6.20;99.90;;;;;;5093898;28;20471;-58
2021/12/08 08:51:17;;;;;;;4.87;4.47;;;6.10;99.90;;;;;;5093013;28;20969;-58
2021/12/08 08:53:50;;;;;;;5.67;4.63;;;6.20;99.90;;;;;;5094644;28;20443;-58
2021/12/08 08:56:22;;;;;;;4.60;4.20;;;6.00;99.90;;;;;;5094179;28;20463;-58
2021/12/08 08:58:54;;;;;;;5.07;3.73;;;6.00;99.90;;;;;;5094292;28;20468;-58
2021/12/08 09:01:25;;;;;;;4.50;4.10;;;6.00;99.90;;;;;;5094241;28;20466;-57
2021/12/08 09:04:00;;;;;;;4.20;3.80;;;6.00;99.90;;;;;;5093697;28;20442;-58
2021/12/08 09:06:31;;;;;;;7.70;4.00;;;6.00;99.90;;;;;;5093978;28;20786;-58
2021/12/08 09:09:01;;;;;;;5.13;4.63;;;5.90;99.90;;;;;;5093748;28;20459;-58
2021/12/08 09:11:32;;;;;;;4.93;4.47;;;6.00;99.90;;;;;;5093870;28;20496;-58
2021/12/08 09:14:06;;;;;;;5.03;4.23;;;6.10;99.90;;;;;;5094226;28;20408;-58
2021/12/08 09:16:36;;;;;;;6.30;4.63;;;6.20;99.90;;;;;;5093896;28;20766;-58
2021/12/08 09:19:11;;;;;;;6.80;4.57;;;6.10;99.90;;;;;;5093773;28;20467;-58
2021/12/08 09:21:42;;;;;;;5.10;4.60;;;6.10;99.90;;;;;;5093810;28;20450;-58
2021/12/08 09:24:15;;;;;;;4.17;3.73;;;6.10;99.90;;;;;;5093583;28;20467;-58
2021/12/08 09:26:46;;;;;;;4.40;4.10;;;6.20;99.90;;;;;;5094723;28;20816;-58
2021/12/08 09:29:19;;;;;;;4.10;3.60;;;6.30;99.90;;;;;;5093498;28;20799;-58
2021/12/08 09:31:53;;;;;;;5.13;4.63;;;6.10;99.90;;;;;;5094309;28;20527;-58
2021/12/08 09:34:25;;;;;;;5.40;4.90;;;6.10;99.90;;;;;;5094225;28;20790;-57
2021/12/08 09:36:54;;;;;;;4.30;3.90;;;6.00;99.90;;;;;;5093451;28;20460;-58
2021/12/08 09:39:25;;;;;;;3.80;3.50;;;6.10;99.90;;;;;;5093062;28;20502;-58
2021/12/08 09:42:03;;;;;;;5.97;4.20;;;6.10;99.90;;;;;;5092960;28;20551;-57
2021/12/08 09:44:36;;;;;;;4.10;3.70;;;6.10;99.90;;;;;;5092862;28;20450;-58
2021/12/08 09:47:04;;;;;;;4.27;3.90;;;5.90;99.90;;;;;;5093547;28;20448;-57
2021/12/08 09:49:33;;;;;;;4.60;4.30;;;5.90;99.90;;;;;;5092738;28;20637;-58
2021/12/08 09:52:05;;;;;;;4.83;4.43;;;6.10;99.90;;;;;;5092835;28;20454;-58
2021/12/08 09:54:32;;;;;;;4.83;4.17;;;6.10;99.90;;;;;;5093283;28;20519;-58
2021/12/08 09:57:02;;;;;;;4.37;3.97;;;6.20;99.90;;;;;;5092793;28;20451;-58
2021/12/08 09:59:33;;;;;;;5.20;4.70;;;6.30;99.90;;;;;;5092948;28;20541;-58
2021/12/08 10:02:04;;;;;;;4.50;4.17;;;6.30;99.90;;;;;;5092441;28;20427;-58
2021/12/08 10:04:31;;;;;;;5.00;4.57;;;6.40;99.90;;;;;;5092856;28;20428;-58
2021/12/08 10:07:03;;;;;;;4.30;3.93;;;6.30;99.90;;;;;;5093216;28;20447;-58
2021/12/08 10:09:30;;;;;;;4.50;4.10;;;6.20;99.90;;;;;;5093085;28;20474;-58
2021/12/08 10:11:57;;;;;;;4.27;3.97;;;6.30;99.90;;;;;;5092495;28;20489;-58
2021/12/08 10:14:25;;;;;;;4.60;3.60;;;6.20;99.90;;;;;;5092585;28;20526;-58
2021/12/08 10:16:55;;;;;;;3.40;3.10;;;6.30;99.90;;;;;;5092795;28;20450;-58
2021/12/08 10:19:23;;;;;;;4.50;4.10;;;6.30;99.90;;;;;;5092542;28;20464;-58
2021/12/08 10:21:50;;;;;;;4.33;3.93;;;6.30;99.90;;;;;;5092534;28;20447;-58
2021/12/08 10:24:21;;;;;;;4.57;4.17;;;6.30;99.90;;;;;;5092772;28;20454;-58
2021/12/08 10:26:49;;;;;;;4.30;3.90;;;6.20;99.90;;;;;;5092962;28;20475;-58
2021/12/08 10:29:23;;;;;;;4.23;3.90;;;6.20;99.90;;;;;;5092365;28;20439;-58
2021/12/08 10:31:53;;;;;;;4.60;4.20;;;6.40;99.90;;;;;;5092527;28;20929;-58
2021/12/08 10:34:25;;;;;;;4.33;3.93;;;6.40;99.90;;;;;;5092435;28;20454;-57
2021/12/08 10:36:55;;;;;;;4.07;3.67;;;6.50;99.90;;;;;;5092514;28;20518;-57
2021/12/08 10:39:30;;;;;;;4.10;3.70;;;6.40;99.90;;;;;;5092703;28;20463;-57
2021/12/08 10:42:01;;;;;;;4.33;4.00;;;6.40;99.90;;;;;;5092562;28;20493;-58
2021/12/08 10:44:36;;;;;;;4.27;3.87;;;6.50;99.90;;;;;;5092201;28;20515;-58
2021/12/08 10:47:04;;;;;;;4.37;3.97;;;6.40;99.90;;;;;;5092780;28;20450;-58
2021/12/08 10:55:05;;;;;;;4.70;4.30;;;6.50;99.90;;;;;;5092634;28;20399;-57
2021/12/08 10:57:34;;;;;;;4.60;4.20;;;6.50;99.90;;;;;;5092542;28;20447;-57
2021/12/08 11:00:06;;;;;;;4.00;3.50;;;6.50;99.90;;;;;;5092134;28;20488;-58
2021/12/08 11:02:42;;;;;;;4.20;3.83;;;6.50;99.90;;;;;;5092496;28;20432;-58
2021/12/08 11:05:38;;;;;;;5.20;4.07;;;6.50;99.90;;;;;;5092467;28;20432;-58
2021/12/08 11:08:09;;;;;;;5.57;3.93;;;6.60;99.90;;;;;;5092449;28;20428;-58
2021/12/08 11:10:39;;;;;;;3.93;3.63;;;6.70;99.90;;;;;;5091933;28;20458;-59
2021/12/08 11:13:08;;;;;;;5.03;3.83;;;6.70;99.90;;;;;;5093063;28;20442;-58
2021/12/08 11:15:37;;;;;;;10.63;4.37;;;6.80;99.90;;;;;;5096264;28;20470;-58
2021/12/08 11:18:20;;;;;;;5.63;4.60;;;6.70;99.90;;;;;;5095470;28;20792;-58
2021/12/08 11:20:51;;;;;;;4.27;3.90;;;6.70;99.90;;;;;;5095505;28;20473;-58
2021/12/08 11:23:38;;;;;;;4.80;4.40;;;6.80;99.90;;;;;;5095448;28;20432;-58
2021/12/08 11:26:13;;;;;;;4.50;4.10;;;6.80;99.90;;;;;;5095458;28;20438;-58
2021/12/08 11:28:40;;;;;;;4.20;3.80;;;6.80;99.90;;;;;;5095583;28;20433;-58
2021/12/08 11:31:11;;;;;;;4.47;3.90;;;6.70;99.90;;;;;;5095536;28;20474;-58
2021/12/08 11:33:43;;;;;;;9.23;4.70;;;6.80;99.90;;;;;;5095691;28;20439;-58
2021/12/08 11:36:15;;;;;;;5.70;4.00;;;6.80;99.90;;;;;;5095456;28;20797;-58
2021/12/08 11:38:44;;;;;;;4.23;3.83;;;7.00;99.90;;;;;;5095513;28;20475;-58
2021/12/08 11:41:24;;;;;;;3.93;3.53;;;6.90;99.90;;;;;;5095108;28;20977;-58
2021/12/08 11:43:53;;;;;;;5.10;4.20;;;7.00;99.90;;;;;;5095034;28;20511;-58
2021/12/08 11:46:21;;;;;;;4.13;3.70;;;6.90;99.90;;;;;;5096074;28;20436;-58
2021/12/08 11:49:01;;;;;;;5.40;3.80;;;7.00;99.90;;;;;;5094806;28;20471;-58
2021/12/08 11:51:31;;;;;;;4.20;3.80;;;7.00;99.90;;;;;;5095322;28;20497;-57
2021/12/08 11:53:58;;;;;;;4.73;4.33;;;7.00;99.90;;;;;;5094864;28;20455;-58
2021/12/08 11:56:37;;;;;;;6.10;4.40;;;7.00;99.90;;;;;;5094718;28;20444;-58
2021/12/08 11:59:07;;;;;;;3.93;3.53;;;7.20;99.90;;;;;;5095287;28;20851;-58
2021/12/08 12:01:36;;;;;;;3.37;3.07;;;6.90;99.90;;;;;;5094791;28;20572;-58
2021/12/08 12:04:03;;;;;;;3.20;2.90;;;6.80;99.90;;;;;;5094960;28;20448;-58
2021/12/08 12:06:34;;;;;;;3.50;3.07;;;6.80;99.90;;;;;;5094733;28;20534;-58
2021/12/08 12:09:04;;;;;;;3.63;3.33;;;6.80;99.90;;;;;;5094733;28;20457;-59
2021/12/08 12:11:32;;;;;;;5.07;4.63;;;6.90;99.90;;;;;;5094741;28;20766;-58
2021/12/08 12:14:01;;;;;;;5.60;3.83;;;6.90;99.90;;;;;;5094677;28;20446;-58
2021/12/08 12:16:29;;;;;;;3.50;3.27;;;6.90;99.90;;;;;;5094111;28;20538;-58
2021/12/08 12:18:59;;;;;;;3.80;3.50;;;7.00;99.90;;;;;;5093988;28;20514;-58
2021/12/08 12:21:37;;;;;;;4.57;4.27;;;6.90;99.90;;;;;;5093894;28;20478;-58
2021/12/08 12:24:30;;;;;;;25.63;17.30;;;6.90;99.90;;;;;;5093822;28;20928;-58
2021/12/08 12:27:16;;;;;;;4.23;3.90;;;7.00;99.90;;;;;;5094135;28;20530;-58
2021/12/08 12:29:56;;;;;;;4.00;3.70;;;7.00;99.90;;;;;;5094080;28;20478;-58
2021/12/08 12:32:27;;;;;;;4.67;3.73;;;6.90;99.90;;;;;;5094749;28;20790;-58
2021/12/08 12:35:13;;;;;;;4.30;3.67;;;7.00;99.90;;;;;;5094136;28;20458;-58
2021/12/08 12:37:42;;;;;;;4.87;4.40;;;6.90;99.90;;;;;;5094145;28;20432;-58
2021/12/08 12:40:13;;;;;;;6.60;4.10;;;7.00;99.90;;;;;;5093993;28;20509;-58
2021/12/08 12:42:54;;;;;;;4.97;4.00;;;7.00;99.90;;;;;;5093891;28;20451;-58
2021/12/08 12:45:24;;;;;;;4.27;3.90;;;7.00;99.90;;;;;;5094551;28;20467;-58
2021/12/08 12:48:21;;;;;;;4.47;3.60;;;6.90;99.90;;;;;;5094594;28;20465;-58
2021/12/08 12:51:01;;;;;;;6.37;4.10;;;6.90;99.90;;;;;;5031499;28;20609;-58
2021/12/08 12:53:37;;;;;;;5.23;4.70;;;6.90;99.90;;;;;;5044783;28;20474;-59
2021/12/08 12:56:04;;;;;;;5.40;4.80;;;6.70;99.90;;;;;;5094379;28;20800;-59
2021/12/08 12:58:46;;;;;;;7.67;5.30;;;6.80;99.90;;;;;;5093839;28;20501;-58
2021/12/08 13:01:16;;;;;;;7.10;4.87;;;6.70;99.90;;;;;;5093725;28;20470;-58
2021/12/08 13:03:53;;;;;;;6.00;5.40;;;6.70;99.90;;;;;;5093598;28;20969;-58
2021/12/08 13:06:47;;;;;;;15.23;5.40;;;6.70;99.90;;;;;;5094533;28;20450;-58
2021/12/08 13:09:41;;;;;;;7.20;4.63;;;6.70;99.90;;;;;;5093596;28;20514;-58
2021/12/08 13:12:10;;;;;;;6.67;5.10;;;6.80;99.90;;;;;;5093896;28;20448;-58
2021/12/08 13:14:39;;;;;;;9.63;3.97;;;6.80;99.90;;;;;;5093697;28;20526;-58
2021/12/08 13:17:18;;;;;;;7.73;5.03;;;6.90;99.90;;;;;;5093790;28;20447;-58
2021/12/08 13:19:48;;;;;;;5.00;4.10;;;6.90;99.90;;;;;;5094085;28;20486;-58
2021/12/08 13:22:43;;;;;;;5.93;3.03;;;6.90;99.90;;;;;;5093506;28;20471;-58
2021/12/08 13:25:27;;;;;;;4.13;3.60;;;7.00;99.90;;;;;;5091595;28;20564;-58
2021/12/08 13:27:56;;;;;;;5.20;3.90;;;7.10;99.90;;;;;;5093711;28;20424;-58
2021/12/08 13:30:23;;;;;;;5.87;4.27;;;7.10;99.90;;;;;;5093148;28;20478;-58
2021/12/08 13:32:57;;;;;;;3.97;3.57;;;7.30;99.90;;;;;;5093523;28;20439;-59
2021/12/08 13:35:33;;;;;;;4.10;3.73;;;7.20;99.90;;;;;;5092682;28;20732;-57
2021/12/08 13:38:01;;;;;;;3.70;3.40;;;7.10;99.90;;;;;;5093616;28;20423;-56
2021/12/08 13:40:43;;;;;;;5.23;3.93;;;7.10;99.90;;;;;;5092763;28;20566;-56
2021/12/08 13:43:11;;;;;;;4.83;4.07;;;7.10;99.90;;;;;;5092979;28;20507;-58
2021/12/08 13:45:43;;;;;;;5.80;4.23;;;7.00;99.90;;;;;;5093295;28;20443;-58
2021/12/08 13:48:10;;;;;;;6.10;4.53;;;7.10;99.90;;;;;;5092631;28;20457;-58
2021/12/08 13:50:38;;;;;;;8.53;5.10;;;7.00;99.90;;;;;;5092650;28;20543;-58